Time;durP1;ratioP1;P1;durP2;ratioP2;P2;SDS_P1;SDS_P2;PMS_P1;PMS_P2;Temp;Humidity;BMP_temperature;BMP_pressure;BME280_temperature;BME280_humidity;BME280_pressure;Samples;Min_cycle;Max_cycle;Signal;HPM_P1;HPM_P2
2021/05/12 00:01:17;;;;;;;;;;;9.50;96.10;;;;;;5085400;28;20025;-70
2021/05/12 00:03:43;;;;;;;;;;;9.50;96.10;;;;;;5082862;28;19912;-70
2021/05/12 00:06:08;;;;;;;;;;;9.50;96.20;;;;;;5093915;28;19923;-70
2021/05/12 00:08:34;;;;;;;;;;;9.40;96.40;;;;;;5079664;28;19916;-70
2021/05/12 00:10:59;;;;;;;;;;;9.40;96.30;;;;;;5085504;28;20279;-70
2021/05/12 00:13:25;;;;;;;;;;;9.40;96.30;;;;;;5081293;28;19923;-70
2021/05/12 00:15:51;;;;;;;;;;;9.40;96.30;;;;;;5078015;28;19921;-70
2021/05/12 00:18:21;;;;;;;;;;;9.40;96.20;;;;;;5076988;28;20225;-71
2021/05/12 00:20:47;;;;;;;;;;;9.40;96.10;;;;;;5070270;28;19921;-70
2021/05/12 00:23:19;;;;;;;;;;;9.40;96.10;;;;;;5085947;28;19920;-70
2021/05/12 00:25:45;;;;;;;;;;;9.40;96.10;;;;;;5079191;28;19955;-71
2021/05/12 00:28:10;;;;;;;;;;;9.40;96.30;;;;;;5079245;28;19947;-70
2021/05/12 00:30:36;;;;;;;;;;;9.40;96.10;;;;;;5077887;28;19955;-71
2021/05/12 00:33:02;;;;;;;;;;;9.40;96.20;;;;;;5078045;28;19916;-71
2021/05/12 00:35:28;;;;;;;;;;;9.30;96.20;;;;;;5078257;28;19913;-70
2021/05/12 00:37:53;;;;;;;;;;;9.30;96.10;;;;;;5059823;28;19917;-71
2021/05/12 00:40:19;;;;;;;;;;;9.30;96.10;;;;;;5081215;28;19956;-71
2021/05/12 00:42:46;;;;;;;;;;;9.30;96.10;;;;;;5077813;28;19912;-70
2021/05/12 00:45:13;;;;;;;;;;;9.30;96.00;;;;;;5077857;28;19970;-70
2021/05/12 00:47:38;;;;;;;;;;;9.30;96.10;;;;;;5076789;28;20566;-71
2021/05/12 00:50:05;;;;;;;;;;;9.20;96.10;;;;;;5077506;28;19958;-71
2021/05/12 00:52:30;;;;;;;;;;;9.20;96.10;;;;;;5077751;28;20008;-70
2021/05/12 00:54:56;;;;;;;;;;;9.20;96.00;;;;;;5078099;28;19955;-70
2021/05/12 00:57:25;;;;;;;;;;;9.20;96.00;;;;;;5047153;28;20007;-70
2021/05/12 00:59:52;;;;;;;;;;;9.20;95.90;;;;;;5075325;28;19917;-70
2021/05/12 01:02:21;;;;;;;;;;;9.20;95.90;;;;;;5058138;28;19913;-70
2021/05/12 01:04:47;;;;;;;;;;;9.20;95.90;;;;;;5072435;28;19917;-71
2021/05/12 01:07:12;;;;;;;;;;;9.20;95.80;;;;;;5061377;28;19927;-69
2021/05/12 01:09:38;;;;;;;;;;;9.20;95.90;;;;;;5075613;28;20350;-71
2021/05/12 01:12:04;;;;;;;;;;;9.20;96.00;;;;;;5079462;28;19909;-70
2021/05/12 01:14:30;;;;;;;;;;;9.20;95.90;;;;;;5078683;28;19928;-70
2021/05/12 01:16:56;;;;;;;;;;;9.10;95.90;;;;;;5077777;28;19912;-70
2021/05/12 01:19:21;;;;;;;;;;;9.10;95.90;;;;;;5057980;28;19912;-70
2021/05/12 01:21:47;;;;;;;;;;;9.10;95.90;;;;;;5080465;28;19923;-70
2021/05/12 01:24:12;;;;;;;;;;;9.00;95.80;;;;;;5074338;28;19912;-70
2021/05/12 01:26:38;;;;;;;;;;;9.00;95.80;;;;;;5091180;28;19912;-70
2021/05/12 01:29:04;;;;;;;;;;;9.00;95.80;;;;;;5076760;28;19912;-69
2021/05/12 01:31:30;;;;;;;;;;;9.00;95.80;;;;;;5082644;28;19920;-68
2021/05/12 01:33:56;;;;;;;;;;;9.00;95.90;;;;;;5060206;28;19916;-69
2021/05/12 01:36:22;;;;;;;;;;;9.00;95.90;;;;;;5075810;28;19973;-71
2021/05/12 01:38:48;;;;;;;;;;;9.00;95.80;;;;;;5076237;28;19908;-71
2021/05/12 01:41:14;;;;;;;;;;;9.00;95.90;;;;;;5076537;28;19966;-71
2021/05/12 01:43:41;;;;;;;;;;;9.00;95.80;;;;;;5082002;28;20243;-71
2021/05/12 01:46:07;;;;;;;;;;;9.00;95.90;;;;;;5079019;28;19917;-71
2021/05/12 01:48:34;;;;;;;;;;;9.00;95.80;;;;;;5062391;28;19923;-71
2021/05/12 01:50:59;;;;;;;;;;;9.00;95.90;;;;;;5088818;28;19916;-71
2021/05/12 01:53:25;;;;;;;;;;;9.00;95.90;;;;;;5079924;28;19912;-71
2021/05/12 01:55:54;;;;;;;;;;;9.00;95.90;;;;;;5082724;28;20305;-70
2021/05/12 01:58:20;;;;;;;;;;;9.00;95.90;;;;;;5075821;28;19912;-70
2021/05/12 02:00:47;;;;;;;;;;;9.00;95.90;;;;;;5077432;28;20344;-70
2021/05/12 02:03:12;;;;;;;;;;;9.00;95.90;;;;;;5077610;28;19916;-70
2021/05/12 02:05:39;;;;;;;;;;;9.00;95.90;;;;;;5089462;28;20006;-70
2021/05/12 02:08:06;;;;;;;;;;;9.00;95.80;;;;;;5080186;28;19919;-71
2021/05/12 02:10:32;;;;;;;;;;;9.00;95.90;;;;;;5059454;28;19951;-70
2021/05/12 02:12:57;;;;;;;;;;;9.00;95.90;;;;;;5076128;28;19913;-70
2021/05/12 02:15:23;;;;;;;;;;;8.90;95.90;;;;;;5092029;28;19931;-70
2021/05/12 02:17:49;;;;;;;;;;;8.90;95.90;;;;;;5076472;28;19919;-70
2021/05/12 02:20:16;;;;;;;;;;;8.90;95.90;;;;;;5098123;28;19912;-71
2021/05/12 02:22:42;;;;;;;;;;;8.90;95.90;;;;;;5095406;28;20274;-70
2021/05/12 02:25:08;;;;;;;;;;;8.90;95.90;;;;;;5099718;28;19920;-70
2021/05/12 02:27:34;;;;;;;;;;;8.90;95.90;;;;;;5095491;28;19955;-69
2021/05/12 02:30:02;;;;;;;;;;;8.90;95.90;;;;;;5095175;28;20331;-70
2021/05/12 02:32:31;;;;;;;;;;;8.90;95.70;;;;;;5098291;28;19915;-70
2021/05/12 02:34:57;;;;;;;;;;;8.90;95.90;;;;;;5095380;28;19938;-70
2021/05/12 02:37:23;;;;;;;;;;;8.80;95.80;;;;;;5081848;28;20302;-71
2021/05/12 02:39:49;;;;;;;;;;;8.80;95.80;;;;;;5095363;28;19944;-70
2021/05/12 02:42:14;;;;;;;;;;;8.90;95.90;;;;;;5084163;28;19918;-70
2021/05/12 02:44:40;;;;;;;;;;;8.80;95.80;;;;;;5107419;28;19915;-70
2021/05/12 02:47:05;;;;;;;;;;;8.80;95.80;;;;;;5102112;28;19931;-70
2021/05/12 02:49:31;;;;;;;;;;;8.80;95.90;;;;;;5099408;28;19918;-71
2021/05/12 02:51:56;;;;;;;;;;;8.80;95.90;;;;;;5098027;28;21408;-70
2021/05/12 02:54:22;;;;;;;;;;;8.80;95.90;;;;;;5096849;28;20207;-70
2021/05/12 02:56:48;;;;;;;;;;;8.70;95.90;;;;;;5103413;28;20363;-70
2021/05/12 02:59:13;;;;;;;;;;;8.70;95.80;;;;;;5092514;28;19915;-70
2021/05/12 03:01:39;;;;;;;;;;;8.70;95.80;;;;;;5103902;28;20299;-70
2021/05/12 03:04:04;;;;;;;;;;;8.70;95.80;;;;;;5096543;28;19958;-70
2021/05/12 03:06:30;;;;;;;;;;;8.80;95.90;;;;;;5088542;28;20018;-70
2021/05/12 03:08:55;;;;;;;;;;;8.80;95.90;;;;;;5103658;28;19908;-70
2021/05/12 03:11:21;;;;;;;;;;;8.70;95.80;;;;;;5096124;28;19913;-70
2021/05/12 03:13:47;;;;;;;;;;;8.70;95.90;;;;;;5096270;28;19966;-71
2021/05/12 03:16:12;;;;;;;;;;;8.70;95.80;;;;;;5065012;28;19920;-71
2021/05/12 03:18:38;;;;;;;;;;;8.80;95.80;;;;;;5069574;28;19919;-70
2021/05/12 03:21:04;;;;;;;;;;;8.80;95.90;;;;;;5069032;28;19913;-70
2021/05/12 03:23:29;;;;;;;;;;;8.80;95.80;;;;;;5055970;28;20004;-70
2021/05/12 03:25:55;;;;;;;;;;;8.80;95.80;;;;;;5055513;28;19917;-70
2021/05/12 03:28:20;;;;;;;;;;;8.70;95.80;;;;;;5062922;28;19917;-70
2021/05/12 03:30:46;;;;;;;;;;;8.70;95.80;;;;;;5065613;28;19982;-71
2021/05/12 03:33:12;;;;;;;;;;;8.70;95.80;;;;;;5070714;28;19936;-69
2021/05/12 03:35:39;;;;;;;;;;;8.70;95.80;;;;;;5058052;28;20301;-71
2021/05/12 03:38:05;;;;;;;;;;;8.70;95.80;;;;;;5038039;28;19913;-69
2021/05/12 03:40:31;;;;;;;;;;;8.70;95.80;;;;;;5070539;28;19999;-69
2021/05/12 03:42:57;;;;;;;;;;;8.70;95.90;;;;;;5065092;28;19954;-69
2021/05/12 03:45:23;;;;;;;;;;;8.60;95.80;;;;;;5065811;28;20015;-69
2021/05/12 03:47:49;;;;;;;;;;;8.70;95.80;;;;;;5065868;28;20003;-69
2021/05/12 03:50:15;;;;;;;;;;;8.70;95.80;;;;;;5067035;28;19912;-70
2021/05/12 03:52:41;;;;;;;;;;;8.70;95.80;;;;;;5073323;28;19913;-70
2021/05/12 03:55:08;;;;;;;;;;;8.60;96.00;;;;;;5073597;28;19917;-70
2021/05/12 03:57:33;;;;;;;;;;;8.60;95.90;;;;;;5068536;28;20268;-71
2021/05/12 03:59:59;;;;;;;;;;;8.60;95.90;;;;;;5068762;28;19917;-70
2021/05/12 04:02:24;;;;;;;;;;;8.60;96.00;;;;;;5079127;28;20292;-70
2021/05/12 04:04:50;;;;;;;;;;;8.60;96.00;;;;;;5093490;28;19912;-69
2021/05/12 04:07:15;;;;;;;;;;;8.60;96.00;;;;;;5069497;28;19917;-71
2021/05/12 04:09:41;;;;;;;;;;;8.60;95.90;;;;;;5064721;28;19935;-69
2021/05/12 04:12:06;;;;;;;;;;;8.50;95.90;;;;;;5073361;28;19916;-69
2021/05/12 04:14:32;;;;;;;;;;;8.50;95.90;;;;;;5081192;28;19978;-70
2021/05/12 04:16:59;;;;;;;;;;;8.50;95.80;;;;;;5067791;28;21235;-70
2021/05/12 04:19:24;;;;;;;;;;;8.50;95.90;;;;;;5068500;28;19919;-69
2021/05/12 04:21:52;;;;;;;;;;;8.50;95.90;;;;;;5075004;28;19912;-69
2021/05/12 04:24:18;;;;;;;;;;;8.50;95.80;;;;;;5075674;28;19948;-69
2021/05/12 04:26:43;;;;;;;;;;;8.50;95.70;;;;;;5080647;28;19959;-69
2021/05/12 04:29:09;;;;;;;;;;;8.50;95.90;;;;;;5077931;28;20046;-69
2021/05/12 04:31:37;;;;;;;;;;;8.50;95.80;;;;;;5069206;28;19920;-70
2021/05/12 04:34:03;;;;;;;;;;;8.50;95.80;;;;;;5077501;28;20006;-71
2021/05/12 04:36:28;;;;;;;;;;;8.50;95.80;;;;;;5080227;28;19913;-71
2021/05/12 04:38:54;;;;;;;;;;;8.50;95.70;;;;;;5078742;28;19913;-70
2021/05/12 04:41:20;;;;;;;;;;;8.50;95.80;;;;;;5072657;28;19913;-72
2021/05/12 04:43:46;;;;;;;;;;;8.50;95.70;;;;;;5059458;28;19927;-70
2021/05/12 04:46:11;;;;;;;;;;;8.50;95.70;;;;;;5081451;28;19922;-70
2021/05/12 04:48:37;;;;;;;;;;;8.40;96.00;;;;;;5076173;28;19912;-70
2021/05/12 04:51:02;;;;;;;;;;;8.40;95.70;;;;;;5077731;28;19912;-71
2021/05/12 04:53:28;;;;;;;;;;;8.30;95.80;;;;;;5078489;28;19916;-70
2021/05/12 04:55:53;;;;;;;;;;;8.30;95.90;;;;;;5076788;28;19999;-70
2021/05/12 04:58:20;;;;;;;;;;;8.30;96.30;;;;;;5076513;28;19981;-69
2021/05/12 05:00:46;;;;;;;;;;;8.10;96.30;;;;;;5076981;28;20007;-71
2021/05/12 05:03:11;;;;;;;;;;;8.00;96.70;;;;;;5078748;28;20004;-70
2021/05/12 05:05:37;;;;;;;;;;;7.90;97.20;;;;;;5076051;28;20267;-71
2021/05/12 05:08:02;;;;;;;;;;;7.80;97.60;;;;;;5077922;28;19909;-70
2021/05/12 05:10:28;;;;;;;;;;;7.70;97.70;;;;;;5077330;28;19921;-71
2021/05/12 05:12:54;;;;;;;;;;;7.70;97.60;;;;;;5060322;28;19908;-72
2021/05/12 05:15:19;;;;;;;;;;;7.70;98.00;;;;;;5065848;28;20224;-71
2021/05/12 05:17:45;;;;;;;;;;;7.60;97.90;;;;;;5088185;28;20300;-70
2021/05/12 05:20:12;;;;;;;;;;;7.70;97.80;;;;;;5097690;28;19919;-72
2021/05/12 05:22:37;;;;;;;;;;;7.70;97.80;;;;;;5089039;28;19913;-71
2021/05/12 05:25:03;;;;;;;;;;;7.60;97.60;;;;;;5077066;28;19913;-71
2021/05/12 05:27:29;;;;;;;;;;;7.60;97.80;;;;;;5077678;28;20013;-71
2021/05/12 05:29:54;;;;;;;;;;;7.60;97.60;;;;;;5097594;28;19916;-70
2021/05/12 05:32:20;;;;;;;;;;;7.70;97.70;;;;;;5065530;28;20050;-70
2021/05/12 05:34:45;;;;;;;;;;;7.70;97.40;;;;;;5077049;28;19912;-71
2021/05/12 05:37:11;;;;;;;;;;;7.70;97.40;;;;;;5084264;28;19935;-71
2021/05/12 05:39:36;;;;;;;;;;;7.80;97.60;;;;;;5086955;28;19978;-71
2021/05/12 05:42:06;;;;;;;;;;;7.80;97.50;;;;;;5077426;28;20187;-71
2021/05/12 05:44:32;;;;;;;;;;;7.80;97.70;;;;;;5077168;28;19919;-71
2021/05/12 05:46:57;;;;;;;;;;;7.80;97.60;;;;;;5077034;28;19919;-71
2021/05/12 05:49:23;;;;;;;;;;;7.80;97.70;;;;;;5075985;28;20305;-71
2021/05/12 05:51:55;;;;;;;;;;;7.80;97.60;;;;;;5076442;28;20320;-71
2021/05/12 05:54:21;;;;;;;;;;;7.80;97.30;;;;;;5077597;28;19957;-71
2021/05/12 05:56:47;;;;;;;;;;;7.80;97.40;;;;;;5077443;28;19912;-71
2021/05/12 05:59:12;;;;;;;;;;;7.80;97.30;;;;;;5059470;28;19931;-70
2021/05/12 06:01:38;;;;;;;;;;;7.80;97.50;;;;;;5082713;28;19916;-71
2021/05/12 06:04:04;;;;;;;;;;;7.80;97.50;;;;;;5075605;28;19909;-71
2021/05/12 06:06:29;;;;;;;;;;;7.80;97.40;;;;;;5084884;28;19916;-71
2021/05/12 06:08:55;;;;;;;;;;;7.80;97.60;;;;;;5080416;28;20324;-72
2021/05/12 06:11:20;;;;;;;;;;;7.80;97.60;;;;;;5091523;28;19923;-71
2021/05/12 06:13:47;;;;;;;;;;;7.90;98.00;;;;;;5095273;28;19923;-71
2021/05/12 06:16:13;;;;;;;;;;;7.80;98.00;;;;;;5089109;28;19916;-71
2021/05/12 06:18:39;;;;;;;;;;;7.80;98.00;;;;;;5077798;28;20004;-71
2021/05/12 06:21:05;;;;;;;;;;;7.80;98.00;;;;;;5095025;28;19912;-71
2021/05/12 06:23:30;;;;;;;;;;;7.70;98.00;;;;;;5096843;28;19908;-72
2021/05/12 06:25:56;;;;;;;;;;;7.70;98.00;;;;;;5095190;28;19967;-70
2021/05/12 06:28:22;;;;;;;;;;;7.70;97.90;;;;;;5079405;28;19999;-70
2021/05/12 06:30:50;;;;;;;;;;;7.80;98.00;;;;;;5086164;28;20011;-71
2021/05/12 06:33:16;;;;;;;;;;;7.80;97.90;;;;;;5091368;28;19916;-71
2021/05/12 06:35:42;;;;;;;;;;;7.80;98.00;;;;;;5076116;28;19909;-71
2021/05/12 06:38:07;;;;;;;;;;;7.80;98.00;;;;;;5081126;28;19916;-72
2021/05/12 06:40:33;;;;;;;;;;;7.80;98.00;;;;;;5096289;28;19919;-71
2021/05/12 06:42:59;;;;;;;;;;;7.80;98.00;;;;;;5081707;28;19912;-71
2021/05/12 06:45:31;;;;;;;;;;;7.80;97.90;;;;;;5058595;28;20006;-72
2021/05/12 06:47:56;;;;;;;;;;;7.90;98.00;;;;;;5093308;28;19916;-71
2021/05/12 06:50:23;;;;;;;;;;;8.00;98.00;;;;;;5086541;28;19917;-71
2021/05/12 06:52:52;;;;;;;;;;;7.90;98.00;;;;;;5076247;28;20297;-72
2021/05/12 06:55:18;;;;;;;;;;;8.00;98.00;;;;;;5095549;28;20258;-71
2021/05/12 06:57:43;;;;;;;;;;;8.00;97.90;;;;;;5071295;28;19912;-71
2021/05/12 07:00:09;;;;;;;;;;;8.00;97.90;;;;;;5077035;28;20205;-71
2021/05/12 07:02:35;;;;;;;;;;;8.00;98.00;;;;;;5091757;28;19912;-71
2021/05/12 07:05:00;;;;;;;;;;;8.10;98.00;;;;;;5092892;28;20352;-72
2021/05/12 07:07:26;;;;;;;;;;;8.10;98.00;;;;;;5084997;28;19912;-72
2021/05/12 07:09:51;;;;;;;;;;;8.10;98.00;;;;;;5079695;28;20205;-71
2021/05/12 07:12:18;;;;;;;;;;;8.10;98.00;;;;;;5084088;28;20481;-71
2021/05/12 07:14:43;;;;;;;;;;;8.20;98.00;;;;;;5059499;28;20240;-70
2021/05/12 07:17:09;;;;;;;;;;;8.20;98.00;;;;;;5081792;28;19912;-70
2021/05/12 07:19:34;;;;;;;;;;;8.20;98.00;;;;;;5077143;28;19923;-70
2021/05/12 07:22:00;;;;;;;;;;;8.30;97.90;;;;;;5060490;28;19916;-70
2021/05/12 07:24:25;;;;;;;;;;;8.30;98.00;;;;;;5084008;28;19935;-71
2021/05/12 07:26:51;;;;;;;;;;;8.20;97.80;;;;;;5079012;28;19954;-72
2021/05/12 07:29:16;;;;;;;;;;;8.30;98.00;;;;;;5074641;28;20297;-71
2021/05/12 07:31:42;;;;;;;;;;;8.30;97.80;;;;;;5070420;28;19908;-72
2021/05/12 07:34:10;;;;;;;;;;;8.30;98.00;;;;;;5082391;28;19913;-72
2021/05/12 07:36:37;;;;;;;;;;;8.30;97.90;;;;;;5075539;28;19917;-72
2021/05/12 07:39:04;;;;;;;;;;;8.30;98.00;;;;;;5086642;28;20370;-70
2021/05/12 07:41:29;;;;;;;;;;;8.30;97.90;;;;;;5095867;28;20296;-72
2021/05/12 07:43:55;;;;;;;;;;;8.40;97.80;;;;;;5059056;28;20090;-71
2021/05/12 07:46:23;;;;;;;;;;;8.40;98.00;;;;;;5076780;28;20014;-71
2021/05/12 07:48:49;;;;;;;;;;;8.50;98.00;;;;;;5074287;28;19980;-71
2021/05/12 07:51:14;;;;;;;;;;;8.50;97.80;;;;;;5077875;28;20296;-71
2021/05/12 07:53:40;;;;;;;;;;;8.50;98.00;;;;;;5087708;28;19916;-72
2021/05/12 07:56:05;;;;;;;;;;;8.50;98.00;;;;;;5084292;28;20225;-72
2021/05/12 07:58:31;;;;;;;;;;;8.50;97.90;;;;;;5084406;28;19916;-71
2021/05/12 08:01:03;;;;;;;;;;;8.60;98.00;;;;;;5096066;28;19908;-71
2021/05/12 08:03:28;;;;;;;;;;;8.60;97.80;;;;;;5097726;28;19912;-71
2021/05/12 08:05:54;;;;;;;;;;;8.60;97.70;;;;;;5093061;28;20293;-72
2021/05/12 08:08:19;;;;;;;;;;;8.70;97.80;;;;;;5099408;28;20293;-72
2021/05/12 08:10:45;;;;;;;;;;;8.70;97.70;;;;;;5097680;28;19915;-71
2021/05/12 08:13:10;;;;;;;;;;;8.80;97.80;;;;;;5092874;28;19912;-72
2021/05/12 08:15:36;;;;;;;;;;;8.80;97.80;;;;;;5095879;28;19954;-71
2021/05/12 08:18:01;;;;;;;;;;;8.80;97.80;;;;;;5078714;28;19920;-71
2021/05/12 08:20:27;;;;;;;;;;;8.80;97.90;;;;;;5094275;28;20259;-71
2021/05/12 08:22:54;;;;;;;;;;;8.90;97.90;;;;;;5073970;28;19940;-71
2021/05/12 08:25:19;;;;;;;;;;;9.00;98.00;;;;;;5060903;28;19916;-71
2021/05/12 08:27:45;;;;;;;;;;;9.00;97.80;;;;;;5078884;28;19974;-71
2021/05/12 08:30:11;;;;;;;;;;;9.10;97.90;;;;;;5095746;28;19916;-72
2021/05/12 08:32:37;;;;;;;;;;;9.20;98.00;;;;;;5077486;28;19931;-72
2021/05/12 08:35:03;;;;;;;;;;;9.20;97.60;;;;;;5095142;28;19912;-71
2021/05/12 08:37:28;;;;;;;;;;;9.30;98.00;;;;;;5084291;28;19912;-72
2021/05/12 08:39:54;;;;;;;;;;;9.20;97.60;;;;;;5079019;28;19920;-72
2021/05/12 08:42:20;;;;;;;;;;;9.20;97.80;;;;;;5077731;28;19915;-72
2021/05/12 08:44:46;;;;;;;;;;;9.30;97.60;;;;;;5061476;28;20231;-71
2021/05/12 08:47:14;;;;;;;;;;;9.30;97.70;;;;;;5082044;28;19927;-71
2021/05/12 08:49:40;;;;;;;;;;;9.40;98.00;;;;;;5089572;28;20309;-71
2021/05/12 08:52:06;;;;;;;;;;;9.40;97.70;;;;;;5091079;28;20007;-71
2021/05/12 08:54:33;;;;;;;;;;;9.40;98.00;;;;;;5069773;28;20291;-71
2021/05/12 08:56:58;;;;;;;;;;;9.40;97.50;;;;;;5078402;28;19908;-72
2021/05/12 08:59:24;;;;;;;;;;;9.40;97.60;;;;;;5082927;28;19998;-71
2021/05/12 09:01:49;;;;;;;;;;;9.40;97.70;;;;;;5084477;28;19919;-72
2021/05/12 09:04:15;;;;;;;;;;;9.50;97.60;;;;;;5077152;28;20053;-71
2021/05/12 09:06:41;;;;;;;;;;;9.70;98.00;;;;;;5078015;28;19912;-71
2021/05/12 09:09:07;;;;;;;;;;;9.80;97.80;;;;;;5078177;28;19908;-72
2021/05/12 09:11:33;;;;;;;;;;;9.80;97.70;;;;;;5078831;28;19913;-71
2021/05/12 09:13:59;;;;;;;;;;;9.80;97.60;;;;;;5062406;28;19927;-72
2021/05/12 09:16:26;;;;;;;;;;;9.70;97.70;;;;;;5091879;28;19939;-71
2021/05/12 09:19:08;;;;;;;;;;;9.90;97.70;;;;;;5096964;28;19908;-71
2021/05/12 09:21:46;;;;;;;;;;;10.00;97.60;;;;;;5077861;28;20311;-71
2021/05/12 09:24:22;;;;;;;;;;;9.90;97.30;;;;;;5079525;28;20211;-71
2021/05/12 09:26:48;;;;;;;;;;;10.10;97.90;;;;;;5097805;28;19924;-71
2021/05/12 09:29:20;;;;;;;;;;;10.20;97.60;;;;;;5097729;28;19908;-71
2021/05/12 09:31:46;;;;;;;;;;;10.20;97.70;;;;;;5097590;28;20263;-71
2021/05/12 09:34:12;;;;;;;;;;;10.20;97.40;;;;;;5096430;28;19912;-71
2021/05/12 09:36:37;;;;;;;;;;;10.30;97.30;;;;;;5097325;28;19912;-71
2021/05/12 09:39:08;;;;;;;;;;;10.30;97.30;;;;;;5097750;28;19920;-71
2021/05/12 09:41:34;;;;;;;;;;;10.30;97.20;;;;;;5095275;28;20220;-71
2021/05/12 09:44:00;;;;;;;;;;;10.20;97.50;;;;;;5097007;28;19908;-72
2021/05/12 09:46:27;;;;;;;;;;;10.30;97.60;;;;;;5091285;28;20316;-71
2021/05/12 09:48:58;;;;;;;;;;;10.30;97.10;;;;;;5096158;28;19970;-73
2021/05/12 09:51:23;;;;;;;;;;;10.40;97.40;;;;;;5097143;28;19912;-70
2021/05/12 09:54:18;;;;;;;;;;;10.50;97.50;;;;;;5096973;28;19912;-70
2021/05/12 09:56:44;;;;;;;;;;;10.70;97.80;;;;;;5075424;28;19916;-70
2021/05/12 09:59:12;;;;;;;;;;;10.70;97.20;;;;;;5097438;28;19994;-70
2021/05/12 10:01:40;;;;;;;;;;;10.70;96.70;;;;;;5096534;28;20236;-71
2021/05/12 10:04:38;;;;;;;;;;;10.70;97.50;;;;;;5096018;28;19956;-71
2021/05/12 10:07:20;;;;;;;;;;;10.60;97.40;;;;;;5078779;28;19966;-71
2021/05/12 10:09:50;;;;;;;;;;;10.80;97.00;;;;;;5096764;28;20007;-69
2021/05/12 10:12:22;;;;;;;;;;;10.90;97.20;;;;;;5096714;28;20312;-69
2021/05/12 10:14:48;;;;;;;;;;;10.80;97.20;;;;;;5096612;28;20002;-70
2021/05/12 10:17:15;;;;;;;;;;;10.80;96.90;;;;;;5095052;28;19920;-69
2021/05/12 10:19:45;;;;;;;;;;;10.80;97.20;;;;;;5095497;28;19912;-72
2021/05/12 10:22:11;;;;;;;;;;;10.70;97.00;;;;;;5095888;28;20266;-72
2021/05/12 10:24:38;;;;;;;;;;;10.80;97.20;;;;;;5096326;28;19920;-72
2021/05/12 10:27:30;;;;;;;;;;;10.90;96.90;;;;;;5095917;28;19924;-72
2021/05/12 10:29:56;;;;;;;;;;;10.80;97.10;;;;;;5085967;28;19923;-72
2021/05/12 10:32:28;;;;;;;;;;;10.90;97.60;;;;;;5076663;28;20288;-72
2021/05/12 10:35:12;;;;;;;;;;;11.00;97.00;;;;;;5094673;28;19920;-71
2021/05/12 10:37:39;;;;;;;;;;;10.80;96.80;;;;;;5091949;28;19926;-70
2021/05/12 10:40:06;;;;;;;;;;;10.90;97.20;;;;;;5091713;28;19927;-71
2021/05/12 10:42:59;;;;;;;;;;;11.00;96.90;;;;;;5092951;28;19916;-71
2021/05/12 10:46:29;;;;;;;;;;;11.00;96.80;;;;;;5092674;28;20003;-70
2021/05/12 10:48:28;;;;;;;;;;;11.10;96.80;;;;;;5081703;28;20197;-70
2021/05/12 10:50:54;;;;;;;;;;;11.50;97.10;;;;;;5092463;28;19923;-70
2021/05/12 10:53:20;;;;;;;;;;;11.60;96.10;;;;;;5092926;28;19912;-71
2021/05/12 10:56:08;;;;;;;;;;;11.80;96.40;;;;;;5092655;28;20227;-71
2021/05/12 10:58:38;;;;;;;;;;;11.90;96.30;;;;;;5072943;28;19912;-71
2021/05/12 11:01:04;;;;;;;;;;;11.90;95.40;;;;;;5081738;28;20394;-71
2021/05/12 11:03:48;;;;;;;;;;;11.70;95.20;;;;;;5089293;28;20003;-71
2021/05/12 11:06:13;;;;;;;;;;;11.50;95.40;;;;;;5092662;28;19916;-71
2021/05/12 11:08:58;;;;;;;;;;;11.50;95.40;;;;;;5091330;28;20220;-70
2021/05/12 11:11:23;;;;;;;;;;;11.50;95.50;;;;;;5074396;28;19920;-71
2021/05/12 11:13:49;;;;;;;;;;;11.60;94.60;;;;;;5090552;28;19916;-71
2021/05/12 11:16:20;;;;;;;;;;;11.40;94.30;;;;;;5072009;28;19920;-70
2021/05/12 11:18:49;;;;;;;;;;;11.40;94.30;;;;;;5070717;28;20380;-70
2021/05/12 11:21:24;;;;;;;;;;;11.30;93.40;;;;;;5071990;28;19917;-70
2021/05/12 11:24:10;;;;;;;;;;;11.20;93.90;;;;;;5053054;28;19917;-71
2021/05/12 11:26:55;;;;;;;;;;;11.10;94.50;;;;;;5067254;28;20228;-69
2021/05/12 11:31:57;;;;;;;;;;;11.10;94.30;;;;;;5065849;28;20422;-68
2021/05/12 11:34:23;;;;;;;;;;;11.20;94.60;;;;;;5078227;28;19908;-70
2021/05/12 11:36:50;;;;;;;;;;;11.30;94.30;;;;;;5075989;28;19919;-70
2021/05/12 11:39:15;;;;;;;;;;;11.40;95.00;;;;;;5068085;28;19913;-70
2021/05/12 11:41:41;;;;;;;;;;;11.60;93.70;;;;;;5075928;28;19912;-70
2021/05/12 11:44:07;;;;;;;;;;;11.70;93.90;;;;;;5079068;28;20313;-69
2021/05/12 11:46:37;;;;;;;;;;;11.90;92.90;;;;;;5078639;28;19971;-70
2021/05/12 11:49:04;;;;;;;;;;;11.90;92.90;;;;;;5064091;28;20314;-71
2021/05/12 11:51:31;;;;;;;;;;;11.90;92.80;;;;;;5067033;28;19916;-69
2021/05/12 11:53:57;;;;;;;;;;;12.10;92.70;;;;;;5078986;28;19997;-68
2021/05/12 11:56:23;;;;;;;;;;;12.20;91.80;;;;;;5061685;28;19986;-68
2021/05/12 11:58:55;;;;;;;;;;;12.00;91.90;;;;;;5062428;28;19939;-69
2021/05/12 12:01:21;;;;;;;;;;;11.90;92.60;;;;;;5061766;28;20071;-70
2021/05/12 12:03:58;;;;;;;;;;;11.90;92.60;;;;;;5059782;28;20019;-70
2021/05/12 12:06:23;;;;;;;;;;;11.80;93.00;;;;;;5059236;28;19916;-69
2021/05/12 12:08:49;;;;;;;;;;;11.70;92.60;;;;;;5067511;28;19919;-70
2021/05/12 12:11:16;;;;;;;;;;;11.90;93.00;;;;;;5068055;28;19917;-70
2021/05/12 12:13:42;;;;;;;;;;;11.80;92.40;;;;;;5059533;28;20301;-69
2021/05/12 12:16:09;;;;;;;;;;;11.80;92.30;;;;;;5065558;28;20225;-69
2021/05/12 12:18:38;;;;;;;;;;;11.90;92.10;;;;;;5059511;28;19921;-69
2021/05/12 12:21:05;;;;;;;;;;;11.70;92.00;;;;;;5066901;28;19917;-70
2021/05/12 12:23:37;;;;;;;;;;;11.90;92.50;;;;;;5061971;28;19913;-70
2021/05/12 12:26:08;;;;;;;;;;;11.90;92.60;;;;;;5070276;28;19916;-70
2021/05/12 12:28:34;;;;;;;;;;;11.80;93.30;;;;;;5055103;28;20570;-69
2021/05/12 12:31:00;;;;;;;;;;;11.70;93.80;;;;;;5062831;28;19920;-70
2021/05/12 12:33:25;;;;;;;;;;;11.60;94.50;;;;;;5060106;28;20224;-70
2021/05/12 12:36:23;;;;;;;;;;;11.40;94.70;;;;;;5065194;28;19982;-69
2021/05/12 12:38:51;;;;;;;;;;;11.20;94.90;;;;;;5040343;28;19939;-70
2021/05/12 12:41:18;;;;;;;;;;;11.00;95.20;;;;;;5061292;28;20459;-70
2021/05/12 12:43:45;;;;;;;;;;;11.00;95.00;;;;;;5066866;28;19978;-70
2021/05/12 12:46:11;;;;;;;;;;;11.10;95.00;;;;;;5062579;28;19936;-69
2021/05/12 12:48:36;;;;;;;;;;;11.30;94.30;;;;;;5056741;28;20465;-69
2021/05/12 12:51:02;;;;;;;;;;;11.40;94.50;;;;;;5067647;28;19920;-69
2021/05/12 12:53:29;;;;;;;;;;;11.40;94.20;;;;;;5067383;28;19913;-70
2021/05/12 12:56:08;;;;;;;;;;;11.40;93.30;;;;;;5067844;28;19993;-68
2021/05/12 12:58:34;;;;;;;;;;;11.30;93.60;;;;;;5049210;28;19999;-69
2021/05/12 13:01:00;;;;;;;;;;;11.60;94.10;;;;;;5068736;28;20309;-69
2021/05/12 13:03:28;;;;;;;;;;;11.50;93.30;;;;;;5068992;28;19917;-68
2021/05/12 13:05:58;;;;;;;;;;;11.30;93.80;;;;;;5067637;28;19916;-69
2021/05/12 13:08:25;;;;;;;;;;;11.60;94.50;;;;;;5066517;28;19946;-68
2021/05/12 13:10:52;;;;;;;;;;;11.60;92.80;;;;;;5067366;28;19917;-69
2021/05/12 13:13:25;;;;;;;;;;;11.80;93.10;;;;;;5067214;28;19916;-69
2021/05/12 13:15:53;;;;;;;;;;;11.80;92.70;;;;;;5068548;28;19921;-70
2021/05/12 13:18:26;;;;;;;;;;;11.90;93.00;;;;;;5056764;28;19913;-70
2021/05/12 13:20:52;;;;;;;;;;;11.70;93.10;;;;;;5076395;28;20472;-71
2021/05/12 13:23:22;;;;;;;;;;;11.40;93.90;;;;;;5057837;28;19965;-70
2021/05/12 13:25:50;;;;;;;;;;;11.50;93.30;;;;;;5074903;28;19921;-70
2021/05/12 13:28:18;;;;;;;;;;;11.40;92.80;;;;;;5075606;28;19917;-71
2021/05/12 13:30:44;;;;;;;;;;;11.50;93.10;;;;;;5076165;28;19908;-71
2021/05/12 13:33:10;;;;;;;;;;;11.60;93.30;;;;;;5074766;28;19917;-70
2021/05/12 13:35:36;;;;;;;;;;;11.60;93.60;;;;;;5076288;28;19999;-70
2021/05/12 13:38:03;;;;;;;;;;;11.70;92.80;;;;;;5075837;28;19913;-70
2021/05/12 13:40:30;;;;;;;;;;;11.60;91.40;;;;;;5059394;28;19908;-70
2021/05/12 13:42:55;;;;;;;;;;;11.40;92.70;;;;;;5076965;28;19923;-70
2021/05/12 13:45:21;;;;;;;;;;;11.30;93.50;;;;;;5076348;28;19916;-70
2021/05/12 13:47:47;;;;;;;;;;;11.30;93.20;;;;;;5075877;28;19908;-70
2021/05/12 13:50:16;;;;;;;;;;;11.20;93.30;;;;;;5075992;28;19921;-70
2021/05/12 13:55:20;;;;;;;;;;;11.10;93.50;;;;;;5075485;28;19919;-70
2021/05/12 14:03:24;;;;;;;;;;;11.80;92.20;;;;;;5050429;28;19916;-72
2021/05/12 14:05:50;;;;;;;;;;;12.20;91.90;;;;;;5070891;28;20316;-71
2021/05/12 14:08:16;;;;;;;;;;;12.10;90.30;;;;;;5075263;28;20439;-71
2021/05/12 14:10:43;;;;;;;;;;;12.30;90.00;;;;;;5073553;28;20062;-69
2021/05/12 14:13:18;;;;;;;;;;;12.60;89.30;;;;;;5054965;28;19912;-70
2021/05/12 14:18:30;;;;;;;;;;;12.80;86.50;;;;;;5086555;28;19993;-70
2021/05/12 14:20:56;;;;;;;;;;;12.90;87.10;;;;;;5088108;28;19920;-69
2021/05/12 14:23:22;;;;;;;;;;;12.80;86.30;;;;;;5092139;28;20335;-69
2021/05/12 14:25:50;;;;;;;;;;;12.70;86.70;;;;;;5092919;28;19916;-71
2021/05/12 14:28:25;;;;;;;;;;;12.60;86.60;;;;;;5074007;28;19923;-69
2021/05/12 14:30:52;;;;;;;;;;;12.40;86.70;;;;;;5092457;28;19963;-70
2021/05/12 14:33:18;;;;;;;;;;;12.60;87.30;;;;;;5092183;28;19912;-71
2021/05/12 14:35:43;;;;;;;;;;;12.80;86.90;;;;;;5090861;28;19912;-70
2021/05/12 14:38:09;;;;;;;;;;;12.70;87.40;;;;;;5081866;28;19917;-71
2021/05/12 14:40:35;;;;;;;;;;;12.90;86.10;;;;;;5088547;28;20342;-70